6Y3 weather

North Fox Island Airport
North Fox Island, Michigan, United States

Public forecast

Using degrees Fahrenheit for public forecast. Weather courtesy of forecast.io.

METAR (pilot weather report)

Closest report is Beaver Island Airport, 15.5 nm (28.7 km) NE. Retrieved 2019/06/19 04:36 UTC (5 minutes ago):

KSJX 190436Z AUTO 34003KT 10SM SCT022 BKN070 OVC090 13/13 A2988 RMK AO2 T01330125

TAF (pilot weather forecast)

Forecast is more than 12 hours old.

Closest forecast is Pellston Regional Airport of Emmet County Airport, 41.7 nm (77.3 km) E. Retrieved 2019/06/18 00:22 UTC (1 day ago):

TAF KPLN 182320Z 1900/1924 00000KT P6SM VCSH SCT040 OVC080 FM190600 00000KT P6SM OVC015 FM191600 02005KT P6SM BKN040